sensor_id;sensor_type;location;lat;lon;timestamp;P1;durP1;ratioP1;P2;durP2;ratioP2
45728;SDS011;31439;53.512;10.206;2023-08-24T00:00:52;5.15;;;3.00;;
45728;SDS011;31439;53.512;10.206;2023-08-24T00:03:18;6.78;;;3.33;;
45728;SDS011;31439;53.512;10.206;2023-08-24T00:05:43;6.57;;;3.20;;
45728;SDS011;31439;53.512;10.206;2023-08-24T00:08:09;5.00;;;3.03;;
45728;SDS011;31439;53.512;10.206;2023-08-24T00:10:35;7.15;;;3.10;;
45728;SDS011;31439;53.512;10.206;2023-08-24T00:13:02;7.95;;;3.30;;
45728;SDS011;31439;53.512;10.206;2023-08-24T00:15:28;5.82;;;3.05;;
45728;SDS011;31439;53.512;10.206;2023-08-24T00:17:54;6.57;;;3.10;;
45728;SDS011;31439;53.512;10.206;2023-08-24T00:20:20;6.63;;;3.28;;
45728;SDS011;31439;53.512;10.206;2023-08-24T00:22:46;5.18;;;2.80;;
45728;SDS011;31439;53.512;10.206;2023-08-24T00:25:12;8.05;;;3.55;;
45728;SDS011;31439;53.512;10.206;2023-08-24T00:27:39;8.93;;;3.15;;
45728;SDS011;31439;53.512;10.206;2023-08-24T00:30:05;7.38;;;3.05;;
45728;SDS011;31439;53.512;10.206;2023-08-24T00:32:32;7.88;;;3.45;;
45728;SDS011;31439;53.512;10.206;2023-08-24T00:34:59;8.57;;;3.30;;
45728;SDS011;31439;53.512;10.206;2023-08-24T00:37:29;10.88;;;3.28;;
45728;SDS011;31439;53.512;10.206;2023-08-24T00:39:54;8.32;;;3.20;;
45728;SDS011;31439;53.512;10.206;2023-08-24T00:42:20;6.75;;;3.25;;
45728;SDS011;31439;53.512;10.206;2023-08-24T00:44:47;7.38;;;2.97;;
45728;SDS011;31439;53.512;10.206;2023-08-24T00:47:13;8.52;;;3.13;;
45728;SDS011;31439;53.512;10.206;2023-08-24T00:49:39;7.63;;;3.10;;
45728;SDS011;31439;53.512;10.206;2023-08-24T00:52:05;7.40;;;2.47;;
45728;SDS011;31439;53.512;10.206;2023-08-24T00:54:31;9.00;;;3.47;;
45728;SDS011;31439;53.512;10.206;2023-08-24T00:56:57;7.10;;;2.70;;
45728;SDS011;31439;53.512;10.206;2023-08-24T00:59:23;6.82;;;3.00;;
45728;SDS011;31439;53.512;10.206;2023-08-24T01:01:49;10.32;;;2.65;;
45728;SDS011;31439;53.512;10.206;2023-08-24T01:04:16;6.43;;;2.80;;
45728;SDS011;31439;53.512;10.206;2023-08-24T01:06:43;5.55;;;2.80;;
45728;SDS011;31439;53.512;10.206;2023-08-24T01:09:08;7.05;;;2.90;;
45728;SDS011;31439;53.512;10.206;2023-08-24T01:11:43;7.13;;;2.55;;
45728;SDS011;31439;53.512;10.206;2023-08-24T01:14:30;6.55;;;3.00;;
45728;SDS011;31439;53.512;10.206;2023-08-24T01:17:12;5.15;;;2.80;;
45728;SDS011;31439;53.512;10.206;2023-08-24T01:19:42;8.10;;;2.90;;
45728;SDS011;31439;53.512;10.206;2023-08-24T01:22:20;6.45;;;2.75;;
45728;SDS011;31439;53.512;10.206;2023-08-24T01:27:34;7.95;;;3.05;;
45728;SDS011;31439;53.512;10.206;2023-08-24T01:30:02;6.00;;;2.78;;
45728;SDS011;31439;53.512;10.206;2023-08-24T01:32:32;7.45;;;2.60;;
45728;SDS011;31439;53.512;10.206;2023-08-24T01:34:59;6.60;;;2.72;;
45728;SDS011;31439;53.512;10.206;2023-08-24T01:37:30;5.47;;;2.95;;
45728;SDS011;31439;53.512;10.206;2023-08-24T01:40:16;7.03;;;2.67;;
45728;SDS011;31439;53.512;10.206;2023-08-24T01:42:55;7.28;;;2.85;;
45728;SDS011;31439;53.512;10.206;2023-08-24T01:45:24;5.93;;;2.88;;
45728;SDS011;31439;53.512;10.206;2023-08-24T01:47:54;8.90;;;3.08;;
45728;SDS011;31439;53.512;10.206;2023-08-24T01:50:20;6.57;;;3.03;;
45728;SDS011;31439;53.512;10.206;2023-08-24T01:52:46;7.70;;;2.60;;
45728;SDS011;31439;53.512;10.206;2023-08-24T01:55:12;5.80;;;2.80;;
45728;SDS011;31439;53.512;10.206;2023-08-24T01:57:40;5.13;;;2.78;;
45728;SDS011;31439;53.512;10.206;2023-08-24T02:00:05;7.43;;;2.80;;
45728;SDS011;31439;53.512;10.206;2023-08-24T02:02:34;7.78;;;3.13;;
45728;SDS011;31439;53.512;10.206;2023-08-24T02:05:00;7.35;;;2.85;;
45728;SDS011;31439;53.512;10.206;2023-08-24T02:07:27;5.03;;;2.70;;
45728;SDS011;31439;53.512;10.206;2023-08-24T02:09:53;8.25;;;2.80;;
45728;SDS011;31439;53.512;10.206;2023-08-24T02:12:18;7.20;;;2.83;;
45728;SDS011;31439;53.512;10.206;2023-08-24T02:14:44;8.55;;;3.22;;
45728;SDS011;31439;53.512;10.206;2023-08-24T02:17:10;9.73;;;3.15;;
45728;SDS011;31439;53.512;10.206;2023-08-24T02:19:35;6.10;;;2.55;;
45728;SDS011;31439;53.512;10.206;2023-08-24T02:22:01;6.57;;;2.97;;
45728;SDS011;31439;53.512;10.206;2023-08-24T02:24:26;8.25;;;3.40;;
45728;SDS011;31439;53.512;10.206;2023-08-24T02:26:52;8.50;;;2.53;;
45728;SDS011;31439;53.512;10.206;2023-08-24T02:29:18;7.10;;;2.95;;
45728;SDS011;31439;53.512;10.206;2023-08-24T02:31:43;6.22;;;3.10;;
45728;SDS011;31439;53.512;10.206;2023-08-24T02:34:09;5.95;;;2.83;;
45728;SDS011;31439;53.512;10.206;2023-08-24T02:36:35;6.05;;;2.90;;
45728;SDS011;31439;53.512;10.206;2023-08-24T02:39:01;5.15;;;2.90;;
45728;SDS011;31439;53.512;10.206;2023-08-24T02:41:26;6.68;;;2.70;;
45728;SDS011;31439;53.512;10.206;2023-08-24T02:43:52;8.50;;;2.95;;
45728;SDS011;31439;53.512;10.206;2023-08-24T02:46:18;7.15;;;2.80;;
45728;SDS011;31439;53.512;10.206;2023-08-24T02:48:45;7.10;;;3.15;;
45728;SDS011;31439;53.512;10.206;2023-08-24T02:51:11;6.70;;;2.80;;
45728;SDS011;31439;53.512;10.206;2023-08-24T02:53:37;4.40;;;2.80;;
45728;SDS011;31439;53.512;10.206;2023-08-24T02:56:03;6.07;;;2.85;;
45728;SDS011;31439;53.512;10.206;2023-08-24T02:58:29;6.97;;;3.17;;
45728;SDS011;31439;53.512;10.206;2023-08-24T03:00:55;6.95;;;2.95;;
45728;SDS011;31439;53.512;10.206;2023-08-24T03:03:21;7.45;;;3.03;;
45728;SDS011;31439;53.512;10.206;2023-08-24T03:05:54;8.73;;;3.25;;
45728;SDS011;31439;53.512;10.206;2023-08-24T03:08:27;10.80;;;3.17;;
45728;SDS011;31439;53.512;10.206;2023-08-24T03:10:53;8.43;;;3.13;;
45728;SDS011;31439;53.512;10.206;2023-08-24T03:13:19;6.93;;;3.17;;
45728;SDS011;31439;53.512;10.206;2023-08-24T03:15:45;7.25;;;3.17;;
45728;SDS011;31439;53.512;10.206;2023-08-24T03:18:16;6.78;;;2.83;;
45728;SDS011;31439;53.512;10.206;2023-08-24T03:20:42;9.93;;;3.63;;
45728;SDS011;31439;53.512;10.206;2023-08-24T03:23:08;8.98;;;3.33;;
45728;SDS011;31439;53.512;10.206;2023-08-24T03:25:39;6.70;;;3.42;;
45728;SDS011;31439;53.512;10.206;2023-08-24T03:28:05;6.40;;;3.50;;
45728;SDS011;31439;53.512;10.206;2023-08-24T03:30:33;6.93;;;3.95;;
45728;SDS011;31439;53.512;10.206;2023-08-24T03:33:00;6.78;;;3.50;;
45728;SDS011;31439;53.512;10.206;2023-08-24T03:35:27;9.38;;;3.67;;
45728;SDS011;31439;53.512;10.206;2023-08-24T03:37:53;5.63;;;3.17;;
45728;SDS011;31439;53.512;10.206;2023-08-24T03:40:18;7.50;;;3.70;;
45728;SDS011;31439;53.512;10.206;2023-08-24T03:42:44;7.95;;;3.70;;
45728;SDS011;31439;53.512;10.206;2023-08-24T03:45:10;7.93;;;3.60;;
45728;SDS011;31439;53.512;10.206;2023-08-24T03:47:35;8.23;;;3.72;;
45728;SDS011;31439;53.512;10.206;2023-08-24T03:50:01;7.53;;;3.80;;
45728;SDS011;31439;53.512;10.206;2023-08-24T03:52:26;8.60;;;3.97;;
45728;SDS011;31439;53.512;10.206;2023-08-24T03:54:52;7.28;;;3.22;;
45728;SDS011;31439;53.512;10.206;2023-08-24T03:57:18;8.27;;;3.70;;
45728;SDS011;31439;53.512;10.206;2023-08-24T03:59:43;7.15;;;3.35;;
45728;SDS011;31439;53.512;10.206;2023-08-24T04:02:09;7.45;;;3.50;;
45728;SDS011;31439;53.512;10.206;2023-08-24T04:04:34;7.82;;;3.80;;
45728;SDS011;31439;53.512;10.206;2023-08-24T04:07:00;9.13;;;3.90;;
45728;SDS011;31439;53.512;10.206;2023-08-24T04:09:27;8.65;;;4.50;;
45728;SDS011;31439;53.512;10.206;2023-08-24T04:11:53;7.38;;;4.25;;
45728;SDS011;31439;53.512;10.206;2023-08-24T04:14:18;7.30;;;4.10;;
45728;SDS011;31439;53.512;10.206;2023-08-24T04:16:44;5.50;;;3.92;;
45728;SDS011;31439;53.512;10.206;2023-08-24T04:19:09;6.78;;;4.15;;
45728;SDS011;31439;53.512;10.206;2023-08-24T04:21:35;10.02;;;4.55;;
45728;SDS011;31439;53.512;10.206;2023-08-24T04:24:01;9.05;;;4.20;;
45728;SDS011;31439;53.512;10.206;2023-08-24T04:26:27;7.43;;;4.20;;
45728;SDS011;31439;53.512;10.206;2023-08-24T04:28:52;7.00;;;3.90;;
45728;SDS011;31439;53.512;10.206;2023-08-24T04:31:18;7.50;;;3.95;;
45728;SDS011;31439;53.512;10.206;2023-08-24T04:33:44;8.23;;;4.25;;
45728;SDS011;31439;53.512;10.206;2023-08-24T04:36:09;8.20;;;4.57;;
45728;SDS011;31439;53.512;10.206;2023-08-24T04:38:35;8.00;;;4.57;;
45728;SDS011;31439;53.512;10.206;2023-08-24T04:41:01;10.18;;;4.43;;
45728;SDS011;31439;53.512;10.206;2023-08-24T04:43:32;7.20;;;4.38;;
45728;SDS011;31439;53.512;10.206;2023-08-24T04:45:57;7.68;;;4.80;;
45728;SDS011;31439;53.512;10.206;2023-08-24T04:48:24;8.63;;;4.70;;
45728;SDS011;31439;53.512;10.206;2023-08-24T04:50:51;9.13;;;5.10;;
45728;SDS011;31439;53.512;10.206;2023-08-24T04:53:18;10.98;;;4.32;;
45728;SDS011;31439;53.512;10.206;2023-08-24T04:55:45;9.05;;;4.78;;
45728;SDS011;31439;53.512;10.206;2023-08-24T04:58:11;7.45;;;4.10;;
45728;SDS011;31439;53.512;10.206;2023-08-24T05:00:38;10.45;;;4.50;;
45728;SDS011;31439;53.512;10.206;2023-08-24T05:03:04;7.75;;;4.32;;
45728;SDS011;31439;53.512;10.206;2023-08-24T05:05:31;6.70;;;4.35;;
45728;SDS011;31439;53.512;10.206;2023-08-24T05:07:58;18.10;;;5.07;;
45728;SDS011;31439;53.512;10.206;2023-08-24T05:10:24;8.85;;;4.85;;
45728;SDS011;31439;53.512;10.206;2023-08-24T05:12:50;9.23;;;4.70;;
45728;SDS011;31439;53.512;10.206;2023-08-24T05:15:16;9.60;;;4.82;;
45728;SDS011;31439;53.512;10.206;2023-08-24T05:17:42;9.65;;;4.53;;
45728;SDS011;31439;53.512;10.206;2023-08-24T05:20:08;8.27;;;5.00;;
45728;SDS011;31439;53.512;10.206;2023-08-24T05:22:37;10.75;;;5.10;;
45728;SDS011;31439;53.512;10.206;2023-08-24T05:25:05;9.95;;;4.75;;
45728;SDS011;31439;53.512;10.206;2023-08-24T05:27:32;10.55;;;4.38;;
45728;SDS011;31439;53.512;10.206;2023-08-24T05:29:57;9.95;;;5.10;;
45728;SDS011;31439;53.512;10.206;2023-08-24T05:32:23;9.23;;;5.13;;
45728;SDS011;31439;53.512;10.206;2023-08-24T05:34:49;8.15;;;4.65;;
45728;SDS011;31439;53.512;10.206;2023-08-24T05:37:15;8.05;;;4.72;;
45728;SDS011;31439;53.512;10.206;2023-08-24T05:39:41;11.60;;;5.10;;
45728;SDS011;31439;53.512;10.206;2023-08-24T05:42:07;8.32;;;5.53;;
45728;SDS011;31439;53.512;10.206;2023-08-24T05:44:33;10.02;;;4.75;;
45728;SDS011;31439;53.512;10.206;2023-08-24T05:46:59;9.75;;;4.35;;
45728;SDS011;31439;53.512;10.206;2023-08-24T05:49:25;9.98;;;3.78;;
45728;SDS011;31439;53.512;10.206;2023-08-24T05:51:51;7.32;;;3.58;;
45728;SDS011;31439;53.512;10.206;2023-08-24T05:54:17;10.48;;;3.42;;
45728;SDS011;31439;53.512;10.206;2023-08-24T05:56:43;7.07;;;3.13;;
45728;SDS011;31439;53.512;10.206;2023-08-24T05:59:10;12.38;;;3.38;;
45728;SDS011;31439;53.512;10.206;2023-08-24T06:01:35;13.27;;;3.60;;
45728;SDS011;31439;53.512;10.206;2023-08-24T06:04:04;5.95;;;3.20;;
45728;SDS011;31439;53.512;10.206;2023-08-24T06:06:30;8.63;;;3.50;;
45728;SDS011;31439;53.512;10.206;2023-08-24T06:08:56;8.85;;;3.65;;
45728;SDS011;31439;53.512;10.206;2023-08-24T06:11:22;8.82;;;3.33;;
45728;SDS011;31439;53.512;10.206;2023-08-24T06:13:48;7.85;;;3.05;;
45728;SDS011;31439;53.512;10.206;2023-08-24T06:16:14;12.65;;;3.33;;
45728;SDS011;31439;53.512;10.206;2023-08-24T06:18:40;7.38;;;3.40;;
45728;SDS011;31439;53.512;10.206;2023-08-24T06:21:05;7.43;;;3.70;;
45728;SDS011;31439;53.512;10.206;2023-08-24T06:23:33;10.40;;;4.05;;
45728;SDS011;31439;53.512;10.206;2023-08-24T06:25:59;8.60;;;3.97;;
45728;SDS011;31439;53.512;10.206;2023-08-24T06:28:26;6.22;;;3.55;;
45728;SDS011;31439;53.512;10.206;2023-08-24T06:30:52;7.15;;;3.92;;
45728;SDS011;31439;53.512;10.206;2023-08-24T06:33:19;8.45;;;3.70;;
45728;SDS011;31439;53.512;10.206;2023-08-24T06:35:45;11.25;;;4.22;;
45728;SDS011;31439;53.512;10.206;2023-08-24T06:38:10;6.80;;;3.80;;
45728;SDS011;31439;53.512;10.206;2023-08-24T06:40:36;9.45;;;3.50;;
45728;SDS011;31439;53.512;10.206;2023-08-24T06:43:02;6.07;;;3.22;;
45728;SDS011;31439;53.512;10.206;2023-08-24T06:45:28;7.95;;;3.00;;
45728;SDS011;31439;53.512;10.206;2023-08-24T06:47:53;7.68;;;2.88;;
45728;SDS011;31439;53.512;10.206;2023-08-24T06:50:19;5.57;;;2.90;;
45728;SDS011;31439;53.512;10.206;2023-08-24T06:52:46;5.60;;;2.63;;
45728;SDS011;31439;53.512;10.206;2023-08-24T06:55:12;7.22;;;3.22;;
45728;SDS011;31439;53.512;10.206;2023-08-24T06:57:38;11.15;;;3.40;;
45728;SDS011;31439;53.512;10.206;2023-08-24T07:00:03;9.23;;;3.28;;
45728;SDS011;31439;53.512;10.206;2023-08-24T07:02:38;8.25;;;3.88;;
45728;SDS011;31439;53.512;10.206;2023-08-24T07:05:03;11.40;;;3.67;;
45728;SDS011;31439;53.512;10.206;2023-08-24T07:07:33;9.43;;;3.47;;
45728;SDS011;31439;53.512;10.206;2023-08-24T07:09:59;7.28;;;2.97;;
45728;SDS011;31439;53.512;10.206;2023-08-24T07:12:25;7.45;;;3.08;;
45728;SDS011;31439;53.512;10.206;2023-08-24T07:14:51;4.82;;;2.47;;
45728;SDS011;31439;53.512;10.206;2023-08-24T07:17:16;6.13;;;2.80;;
45728;SDS011;31439;53.512;10.206;2023-08-24T07:19:43;5.80;;;3.13;;
45728;SDS011;31439;53.512;10.206;2023-08-24T07:22:08;9.00;;;3.00;;
45728;SDS011;31439;53.512;10.206;2023-08-24T07:24:34;6.40;;;2.72;;
45728;SDS011;31439;53.512;10.206;2023-08-24T07:27:01;4.07;;;2.00;;
45728;SDS011;31439;53.512;10.206;2023-08-24T07:29:28;5.07;;;1.88;;
45728;SDS011;31439;53.512;10.206;2023-08-24T07:31:54;5.18;;;2.00;;
45728;SDS011;31439;53.512;10.206;2023-08-24T07:34:19;5.90;;;1.67;;
45728;SDS011;31439;53.512;10.206;2023-08-24T07:36:47;9.23;;;2.00;;
45728;SDS011;31439;53.512;10.206;2023-08-24T07:39:13;4.70;;;2.03;;
45728;SDS011;31439;53.512;10.206;2023-08-24T07:41:40;4.82;;;2.30;;
45728;SDS011;31439;53.512;10.206;2023-08-24T07:44:09;6.32;;;1.80;;
45728;SDS011;31439;53.512;10.206;2023-08-24T07:46:35;7.75;;;2.10;;
45728;SDS011;31439;53.512;10.206;2023-08-24T07:49:01;5.85;;;2.08;;
45728;SDS011;31439;53.512;10.206;2023-08-24T07:51:26;3.53;;;1.80;;
45728;SDS011;31439;53.512;10.206;2023-08-24T07:53:53;4.75;;;1.70;;
45728;SDS011;31439;53.512;10.206;2023-08-24T07:56:19;9.38;;;1.80;;
45728;SDS011;31439;53.512;10.206;2023-08-24T07:58:45;4.97;;;1.80;;
45728;SDS011;31439;53.512;10.206;2023-08-24T08:01:11;3.50;;;1.55;;
45728;SDS011;31439;53.512;10.206;2023-08-24T08:03:37;5.63;;;1.70;;
45728;SDS011;31439;53.512;10.206;2023-08-24T08:06:03;5.00;;;1.67;;
45728;SDS011;31439;53.512;10.206;2023-08-24T08:08:29;3.05;;;1.45;;
45728;SDS011;31439;53.512;10.206;2023-08-24T08:10:58;6.15;;;2.08;;
45728;SDS011;31439;53.512;10.206;2023-08-24T08:13:26;4.35;;;1.80;;
45728;SDS011;31439;53.512;10.206;2023-08-24T08:15:52;5.70;;;1.83;;
45728;SDS011;31439;53.512;10.206;2023-08-24T08:18:18;3.72;;;1.42;;
45728;SDS011;31439;53.512;10.206;2023-08-24T08:20:44;6.55;;;2.13;;
45728;SDS011;31439;53.512;10.206;2023-08-24T08:23:10;5.45;;;2.00;;
45728;SDS011;31439;53.512;10.206;2023-08-24T08:25:35;3.40;;;1.55;;
45728;SDS011;31439;53.512;10.206;2023-08-24T08:28:01;6.43;;;2.08;;
45728;SDS011;31439;53.512;10.206;2023-08-24T08:30:27;3.83;;;1.80;;
45728;SDS011;31439;53.512;10.206;2023-08-24T08:32:52;5.45;;;1.50;;
45728;SDS011;31439;53.512;10.206;2023-08-24T08:35:19;5.10;;;1.73;;
45728;SDS011;31439;53.512;10.206;2023-08-24T08:37:47;3.85;;;1.75;;
45728;SDS011;31439;53.512;10.206;2023-08-24T08:40:14;11.20;;;1.88;;
45728;SDS011;31439;53.512;10.206;2023-08-24T08:42:40;5.28;;;1.83;;
45728;SDS011;31439;53.512;10.206;2023-08-24T08:45:10;5.18;;;1.60;;
45728;SDS011;31439;53.512;10.206;2023-08-24T08:47:36;4.18;;;1.70;;
45728;SDS011;31439;53.512;10.206;2023-08-24T08:50:02;4.60;;;1.70;;
45728;SDS011;31439;53.512;10.206;2023-08-24T08:52:29;3.42;;;1.50;;
45728;SDS011;31439;53.512;10.206;2023-08-24T08:54:56;2.78;;;1.42;;
45728;SDS011;31439;53.512;10.206;2023-08-24T08:57:22;5.40;;;1.70;;
45728;SDS011;31439;53.512;10.206;2023-08-24T08:59:49;4.13;;;1.75;;
45728;SDS011;31439;53.512;10.206;2023-08-24T09:02:17;4.43;;;1.52;;
45728;SDS011;31439;53.512;10.206;2023-08-24T09:04:45;4.93;;;1.98;;
45728;SDS011;31439;53.512;10.206;2023-08-24T09:07:15;4.25;;;1.58;;
45728;SDS011;31439;53.512;10.206;2023-08-24T09:09:41;6.95;;;1.83;;
45728;SDS011;31439;53.512;10.206;2023-08-24T09:12:08;5.72;;;1.70;;
45728;SDS011;31439;53.512;10.206;2023-08-24T09:14:34;4.75;;;2.05;;
45728;SDS011;31439;53.512;10.206;2023-08-24T09:17:00;6.30;;;1.52;;
45728;SDS011;31439;53.512;10.206;2023-08-24T09:19:29;5.55;;;2.08;;
45728;SDS011;31439;53.512;10.206;2023-08-24T09:21:56;4.00;;;1.50;;
45728;SDS011;31439;53.512;10.206;2023-08-24T09:24:32;4.53;;;1.65;;
45728;SDS011;31439;53.512;10.206;2023-08-24T09:26:58;5.25;;;1.67;;
45728;SDS011;31439;53.512;10.206;2023-08-24T09:29:39;5.07;;;1.60;;
45728;SDS011;31439;53.512;10.206;2023-08-24T09:32:07;5.35;;;1.60;;
45728;SDS011;31439;53.512;10.206;2023-08-24T09:34:33;6.63;;;1.65;;
45728;SDS011;31439;53.512;10.206;2023-08-24T09:37:01;5.85;;;1.80;;
45728;SDS011;31439;53.512;10.206;2023-08-24T09:39:29;5.10;;;1.85;;
45728;SDS011;31439;53.512;10.206;2023-08-24T09:41:55;4.93;;;1.33;;
45728;SDS011;31439;53.512;10.206;2023-08-24T09:44:28;6.18;;;1.70;;
45728;SDS011;31439;53.512;10.206;2023-08-24T09:46:53;5.47;;;1.70;;
45728;SDS011;31439;53.512;10.206;2023-08-24T09:49:19;5.25;;;1.73;;
45728;SDS011;31439;53.512;10.206;2023-08-24T09:51:46;4.20;;;1.90;;
45728;SDS011;31439;53.512;10.206;2023-08-24T09:54:13;5.60;;;1.58;;
45728;SDS011;31439;53.512;10.206;2023-08-24T09:56:42;4.78;;;1.70;;
45728;SDS011;31439;53.512;10.206;2023-08-24T09:59:12;4.30;;;1.63;;
45728;SDS011;31439;53.512;10.206;2023-08-24T10:01:48;5.10;;;1.95;;
45728;SDS011;31439;53.512;10.206;2023-08-24T10:04:15;3.17;;;1.45;;
45728;SDS011;31439;53.512;10.206;2023-08-24T10:06:46;4.80;;;1.90;;
45728;SDS011;31439;53.512;10.206;2023-08-24T10:09:21;6.22;;;1.90;;
45728;SDS011;31439;53.512;10.206;2023-08-24T10:11:52;5.85;;;1.90;;
45728;SDS011;31439;53.512;10.206;2023-08-24T10:17:05;6.85;;;2.08;;
45728;SDS011;31439;53.512;10.206;2023-08-24T10:19:33;4.45;;;2.00;;
45728;SDS011;31439;53.512;10.206;2023-08-24T10:21:59;4.63;;;1.90;;
45728;SDS011;31439;53.512;10.206;2023-08-24T10:24:26;6.88;;;2.10;;
45728;SDS011;31439;53.512;10.206;2023-08-24T10:26:53;6.35;;;2.05;;
45728;SDS011;31439;53.512;10.206;2023-08-24T10:29:20;4.72;;;1.88;;
45728;SDS011;31439;53.512;10.206;2023-08-24T10:31:46;5.10;;;1.85;;
45728;SDS011;31439;53.512;10.206;2023-08-24T10:34:14;7.97;;;2.40;;
45728;SDS011;31439;53.512;10.206;2023-08-24T10:36:40;6.65;;;2.20;;
45728;SDS011;31439;53.512;10.206;2023-08-24T10:39:06;6.10;;;2.30;;
45728;SDS011;31439;53.512;10.206;2023-08-24T10:41:48;4.40;;;2.00;;
45728;SDS011;31439;53.512;10.206;2023-08-24T10:44:24;7.93;;;2.70;;
45728;SDS011;31439;53.512;10.206;2023-08-24T10:47:08;6.13;;;2.75;;
45728;SDS011;31439;53.512;10.206;2023-08-24T10:49:40;6.25;;;2.83;;
45728;SDS011;31439;53.512;10.206;2023-08-24T10:52:26;8.93;;;2.40;;
45728;SDS011;31439;53.512;10.206;2023-08-24T10:54:57;4.90;;;2.60;;
45728;SDS011;31439;53.512;10.206;2023-08-24T10:57:27;9.25;;;3.80;;
45728;SDS011;31439;53.512;10.206;2023-08-24T11:02:41;5.82;;;3.05;;
45728;SDS011;31439;53.512;10.206;2023-08-24T11:07:54;5.60;;;2.55;;
45728;SDS011;31439;53.512;10.206;2023-08-24T11:10:25;9.07;;;3.13;;
45728;SDS011;31439;53.512;10.206;2023-08-24T11:15:45;5.50;;;2.90;;
45728;SDS011;31439;53.512;10.206;2023-08-24T11:20:44;6.10;;;2.60;;
45728;SDS011;31439;53.512;10.206;2023-08-24T11:23:15;6.90;;;2.50;;
45728;SDS011;31439;53.512;10.206;2023-08-24T11:25:41;5.68;;;2.35;;
45728;SDS011;31439;53.512;10.206;2023-08-24T11:28:08;7.13;;;2.80;;
45728;SDS011;31439;53.512;10.206;2023-08-24T11:30:33;5.88;;;2.20;;
45728;SDS011;31439;53.512;10.206;2023-08-24T11:33:00;5.35;;;2.53;;
45728;SDS011;31439;53.512;10.206;2023-08-24T11:35:27;4.72;;;2.53;;
45728;SDS011;31439;53.512;10.206;2023-08-24T11:37:53;7.82;;;2.38;;
45728;SDS011;31439;53.512;10.206;2023-08-24T11:40:20;5.25;;;2.30;;
45728;SDS011;31439;53.512;10.206;2023-08-24T11:42:54;9.63;;;2.50;;
45728;SDS011;31439;53.512;10.206;2023-08-24T11:45:20;10.15;;;2.70;;
45728;SDS011;31439;53.512;10.206;2023-08-24T11:47:47;9.07;;;2.65;;
45728;SDS011;31439;53.512;10.206;2023-08-24T11:50:13;6.90;;;2.40;;
45728;SDS011;31439;53.512;10.206;2023-08-24T11:52:41;7.65;;;2.15;;
45728;SDS011;31439;53.512;10.206;2023-08-24T11:55:07;7.20;;;2.20;;
45728;SDS011;31439;53.512;10.206;2023-08-24T11:57:36;6.05;;;2.20;;
45728;SDS011;31439;53.512;10.206;2023-08-24T12:00:03;4.28;;;2.10;;
45728;SDS011;31439;53.512;10.206;2023-08-24T12:02:30;4.40;;;1.75;;
45728;SDS011;31439;53.512;10.206;2023-08-24T12:04:56;8.55;;;2.40;;
45728;SDS011;31439;53.512;10.206;2023-08-24T12:07:25;4.13;;;2.17;;
45728;SDS011;31439;53.512;10.206;2023-08-24T12:09:52;4.60;;;1.98;;
45728;SDS011;31439;53.512;10.206;2023-08-24T12:12:19;4.05;;;2.00;;
45728;SDS011;31439;53.512;10.206;2023-08-24T12:14:48;6.28;;;2.42;;
45728;SDS011;31439;53.512;10.206;2023-08-24T12:17:15;5.50;;;2.20;;
45728;SDS011;31439;53.512;10.206;2023-08-24T12:19:45;7.38;;;2.10;;
45728;SDS011;31439;53.512;10.206;2023-08-24T12:22:22;4.07;;;2.03;;
45728;SDS011;31439;53.512;10.206;2023-08-24T12:24:48;3.30;;;1.70;;
45728;SDS011;31439;53.512;10.206;2023-08-24T12:27:23;5.00;;;2.00;;
45728;SDS011;31439;53.512;10.206;2023-08-24T12:29:51;5.20;;;2.17;;
45728;SDS011;31439;53.512;10.206;2023-08-24T12:32:17;5.07;;;2.10;;
45728;SDS011;31439;53.512;10.206;2023-08-24T12:34:50;4.00;;;1.98;;
45728;SDS011;31439;53.512;10.206;2023-08-24T12:37:19;2.90;;;1.80;;
45728;SDS011;31439;53.512;10.206;2023-08-24T12:39:45;3.72;;;1.98;;
45728;SDS011;31439;53.512;10.206;2023-08-24T12:42:11;4.57;;;1.95;;
45728;SDS011;31439;53.512;10.206;2023-08-24T12:44:36;12.43;;;1.90;;
45728;SDS011;31439;53.512;10.206;2023-08-24T12:47:02;5.68;;;1.90;;
45728;SDS011;31439;53.512;10.206;2023-08-24T12:49:28;4.60;;;2.00;;
45728;SDS011;31439;53.512;10.206;2023-08-24T12:51:54;5.70;;;1.88;;
45728;SDS011;31439;53.512;10.206;2023-08-24T12:54:19;5.47;;;1.85;;
45728;SDS011;31439;53.512;10.206;2023-08-24T12:56:45;4.03;;;1.67;;
45728;SDS011;31439;53.512;10.206;2023-08-24T12:59:11;4.45;;;1.80;;
45728;SDS011;31439;53.512;10.206;2023-08-24T13:01:37;4.63;;;1.95;;
45728;SDS011;31439;53.512;10.206;2023-08-24T13:04:03;4.75;;;1.83;;
45728;SDS011;31439;53.512;10.206;2023-08-24T13:06:29;7.97;;;2.00;;
45728;SDS011;31439;53.512;10.206;2023-08-24T13:08:55;4.55;;;2.00;;
45728;SDS011;31439;53.512;10.206;2023-08-24T13:11:21;4.32;;;1.70;;
45728;SDS011;31439;53.512;10.206;2023-08-24T13:13:47;4.15;;;2.00;;
45728;SDS011;31439;53.512;10.206;2023-08-24T13:16:13;5.97;;;2.10;;
45728;SDS011;31439;53.512;10.206;2023-08-24T13:18:39;5.00;;;1.90;;
45728;SDS011;31439;53.512;10.206;2023-08-24T13:21:05;3.88;;;2.00;;
45728;SDS011;31439;53.512;10.206;2023-08-24T13:23:30;3.55;;;1.88;;
45728;SDS011;31439;53.512;10.206;2023-08-24T13:25:59;6.50;;;2.22;;
45728;SDS011;31439;53.512;10.206;2023-08-24T13:28:25;3.30;;;1.85;;
45728;SDS011;31439;53.512;10.206;2023-08-24T13:30:51;3.88;;;2.08;;
45728;SDS011;31439;53.512;10.206;2023-08-24T13:33:16;4.22;;;1.90;;
45728;SDS011;31439;53.512;10.206;2023-08-24T13:35:44;3.97;;;1.70;;
45728;SDS011;31439;53.512;10.206;2023-08-24T13:38:10;4.80;;;1.95;;
45728;SDS011;31439;53.512;10.206;2023-08-24T13:40:35;6.25;;;2.08;;
45728;SDS011;31439;53.512;10.206;2023-08-24T13:43:01;4.25;;;1.80;;
45728;SDS011;31439;53.512;10.206;2023-08-24T13:45:27;4.70;;;1.83;;
45728;SDS011;31439;53.512;10.206;2023-08-24T13:47:55;4.15;;;1.85;;
45728;SDS011;31439;53.512;10.206;2023-08-24T13:50:21;7.82;;;2.25;;
45728;SDS011;31439;53.512;10.206;2023-08-24T13:52:47;11.15;;;2.22;;
45728;SDS011;31439;53.512;10.206;2023-08-24T13:55:12;5.38;;;1.90;;
45728;SDS011;31439;53.512;10.206;2023-08-24T13:57:38;4.93;;;2.00;;
45728;SDS011;31439;53.512;10.206;2023-08-24T14:00:03;4.88;;;2.15;;
45728;SDS011;31439;53.512;10.206;2023-08-24T14:02:32;4.38;;;1.90;;
45728;SDS011;31439;53.512;10.206;2023-08-24T14:04:58;4.80;;;1.80;;
45728;SDS011;31439;53.512;10.206;2023-08-24T14:07:24;3.83;;;1.98;;
45728;SDS011;31439;53.512;10.206;2023-08-24T14:09:49;6.05;;;2.05;;
45728;SDS011;31439;53.512;10.206;2023-08-24T14:12:15;7.50;;;2.45;;
45728;SDS011;31439;53.512;10.206;2023-08-24T14:14:40;3.95;;;1.98;;
45728;SDS011;31439;53.512;10.206;2023-08-24T14:17:06;5.93;;;2.30;;
45728;SDS011;31439;53.512;10.206;2023-08-24T14:19:32;5.95;;;1.90;;
45728;SDS011;31439;53.512;10.206;2023-08-24T14:21:57;6.35;;;2.20;;
45728;SDS011;31439;53.512;10.206;2023-08-24T14:24:23;4.15;;;1.98;;
45728;SDS011;31439;53.512;10.206;2023-08-24T14:26:49;3.97;;;1.70;;
45728;SDS011;31439;53.512;10.206;2023-08-24T14:29:15;4.25;;;1.90;;
45728;SDS011;31439;53.512;10.206;2023-08-24T14:31:40;6.30;;;2.13;;
45728;SDS011;31439;53.512;10.206;2023-08-24T14:34:06;3.83;;;1.85;;
45728;SDS011;31439;53.512;10.206;2023-08-24T14:36:32;6.68;;;2.20;;
45728;SDS011;31439;53.512;10.206;2023-08-24T14:38:58;4.88;;;2.08;;
45728;SDS011;31439;53.512;10.206;2023-08-24T14:41:24;5.78;;;2.15;;
45728;SDS011;31439;53.512;10.206;2023-08-24T14:43:49;4.18;;;1.90;;
45728;SDS011;31439;53.512;10.206;2023-08-24T14:46:15;7.40;;;1.95;;
45728;SDS011;31439;53.512;10.206;2023-08-24T14:48:41;3.67;;;1.75;;